sensor_id;sensor_type;location;lat;lon;timestamp;P1;durP1;ratioP1;P2;durP2;ratioP2
64795;SDS011;51229;51.980;6.722;2023-04-24T00:00:03;5.38;;;3.20;;
64795;SDS011;51229;51.980;6.722;2023-04-24T00:02:37;6.38;;;3.95;;
64795;SDS011;51229;51.980;6.722;2023-04-24T00:05:06;6.30;;;3.67;;
64795;SDS011;51229;51.980;6.722;2023-04-24T00:07:33;5.65;;;3.33;;
64795;SDS011;51229;51.980;6.722;2023-04-24T00:09:59;4.35;;;2.67;;
64795;SDS011;51229;51.980;6.722;2023-04-24T00:12:25;6.78;;;4.10;;
64795;SDS011;51229;51.980;6.722;2023-04-24T00:14:51;6.25;;;3.78;;
64795;SDS011;51229;51.980;6.722;2023-04-24T00:17:17;5.72;;;3.42;;
64795;SDS011;51229;51.980;6.722;2023-04-24T00:19:46;5.72;;;3.33;;
64795;SDS011;51229;51.980;6.722;2023-04-24T00:22:13;6.35;;;3.97;;
64795;SDS011;51229;51.980;6.722;2023-04-24T00:24:39;5.63;;;3.80;;
64795;SDS011;51229;51.980;6.722;2023-04-24T00:27:05;8.25;;;3.50;;
64795;SDS011;51229;51.980;6.722;2023-04-24T00:29:31;6.38;;;3.70;;
64795;SDS011;51229;51.980;6.722;2023-04-24T00:31:57;5.88;;;3.92;;
64795;SDS011;51229;51.980;6.722;2023-04-24T00:34:22;6.80;;;3.75;;
64795;SDS011;51229;51.980;6.722;2023-04-24T00:36:48;6.38;;;3.88;;
64795;SDS011;51229;51.980;6.722;2023-04-24T00:39:17;6.82;;;3.83;;
64795;SDS011;51229;51.980;6.722;2023-04-24T00:41:44;5.70;;;3.40;;
64795;SDS011;51229;51.980;6.722;2023-04-24T00:44:10;5.95;;;3.70;;
64795;SDS011;51229;51.980;6.722;2023-04-24T00:46:36;5.07;;;2.88;;
64795;SDS011;51229;51.980;6.722;2023-04-24T00:49:03;4.93;;;2.85;;
64795;SDS011;51229;51.980;6.722;2023-04-24T00:51:30;5.15;;;2.83;;
64795;SDS011;51229;51.980;6.722;2023-04-24T00:53:57;4.35;;;2.58;;
64795;SDS011;51229;51.980;6.722;2023-04-24T00:56:23;5.47;;;2.40;;
64795;SDS011;51229;51.980;6.722;2023-04-24T00:58:49;5.25;;;2.45;;
64795;SDS011;51229;51.980;6.722;2023-04-24T01:01:15;4.43;;;2.10;;
64795;SDS011;51229;51.980;6.722;2023-04-24T01:03:41;4.10;;;2.28;;
64795;SDS011;51229;51.980;6.722;2023-04-24T01:06:07;3.72;;;2.20;;
64795;SDS011;51229;51.980;6.722;2023-04-24T01:08:34;3.28;;;1.80;;
64795;SDS011;51229;51.980;6.722;2023-04-24T01:11:03;4.03;;;1.73;;
64795;SDS011;51229;51.980;6.722;2023-04-24T01:13:29;4.28;;;2.20;;
64795;SDS011;51229;51.980;6.722;2023-04-24T01:15:57;3.92;;;2.47;;
64795;SDS011;51229;51.980;6.722;2023-04-24T01:18:22;5.40;;;3.10;;
64795;SDS011;51229;51.980;6.722;2023-04-24T01:20:49;5.10;;;2.85;;
64795;SDS011;51229;51.980;6.722;2023-04-24T01:23:18;4.90;;;2.85;;
64795;SDS011;51229;51.980;6.722;2023-04-24T01:25:44;6.50;;;3.63;;
64795;SDS011;51229;51.980;6.722;2023-04-24T01:28:10;5.50;;;3.67;;
64795;SDS011;51229;51.980;6.722;2023-04-24T01:30:37;9.55;;;5.07;;
64795;SDS011;51229;51.980;6.722;2023-04-24T01:33:03;6.90;;;4.55;;
64795;SDS011;51229;51.980;6.722;2023-04-24T01:35:28;8.23;;;5.40;;
64795;SDS011;51229;51.980;6.722;2023-04-24T01:37:54;7.05;;;5.45;;
64795;SDS011;51229;51.980;6.722;2023-04-24T01:40:20;9.23;;;4.93;;
64795;SDS011;51229;51.980;6.722;2023-04-24T01:42:46;8.05;;;5.80;;
64795;SDS011;51229;51.980;6.722;2023-04-24T01:45:12;9.70;;;6.03;;
64795;SDS011;51229;51.980;6.722;2023-04-24T01:47:38;8.80;;;4.60;;
64795;SDS011;51229;51.980;6.722;2023-04-24T01:50:04;9.43;;;6.40;;
64795;SDS011;51229;51.980;6.722;2023-04-24T01:52:31;9.40;;;5.45;;
64795;SDS011;51229;51.980;6.722;2023-04-24T01:55:01;10.07;;;6.15;;
64795;SDS011;51229;51.980;6.722;2023-04-24T01:57:31;11.07;;;5.55;;
64795;SDS011;51229;51.980;6.722;2023-04-24T01:59:57;8.88;;;6.82;;
64795;SDS011;51229;51.980;6.722;2023-04-24T02:02:23;7.68;;;4.40;;
64795;SDS011;51229;51.980;6.722;2023-04-24T02:04:49;10.73;;;5.55;;
64795;SDS011;51229;51.980;6.722;2023-04-24T02:07:16;11.43;;;5.82;;
64795;SDS011;51229;51.980;6.722;2023-04-24T02:09:41;7.35;;;5.13;;
64795;SDS011;51229;51.980;6.722;2023-04-24T02:12:07;11.00;;;5.10;;
64795;SDS011;51229;51.980;6.722;2023-04-24T02:14:33;7.68;;;4.90;;
64795;SDS011;51229;51.980;6.722;2023-04-24T02:16:58;10.43;;;6.20;;
64795;SDS011;51229;51.980;6.722;2023-04-24T02:19:25;10.27;;;5.13;;
64795;SDS011;51229;51.980;6.722;2023-04-24T02:21:51;9.30;;;5.10;;
64795;SDS011;51229;51.980;6.722;2023-04-24T02:24:17;10.00;;;6.35;;
64795;SDS011;51229;51.980;6.722;2023-04-24T02:26:43;9.68;;;7.22;;
64795;SDS011;51229;51.980;6.722;2023-04-24T02:29:08;10.95;;;6.25;;
64795;SDS011;51229;51.980;6.722;2023-04-24T02:31:34;11.63;;;6.97;;
64795;SDS011;51229;51.980;6.722;2023-04-24T02:34:00;9.38;;;6.10;;
64795;SDS011;51229;51.980;6.722;2023-04-24T02:36:26;10.45;;;7.10;;
64795;SDS011;51229;51.980;6.722;2023-04-24T02:38:51;12.40;;;8.15;;
64795;SDS011;51229;51.980;6.722;2023-04-24T02:41:17;12.40;;;6.38;;
64795;SDS011;51229;51.980;6.722;2023-04-24T02:43:43;12.05;;;6.10;;
64795;SDS011;51229;51.980;6.722;2023-04-24T02:46:09;11.77;;;6.75;;
64795;SDS011;51229;51.980;6.722;2023-04-24T02:48:34;11.80;;;7.30;;
64795;SDS011;51229;51.980;6.722;2023-04-24T02:51:00;14.88;;;7.88;;
64795;SDS011;51229;51.980;6.722;2023-04-24T02:53:26;12.40;;;7.55;;
64795;SDS011;51229;51.980;6.722;2023-04-24T02:55:51;16.27;;;8.63;;
64795;SDS011;51229;51.980;6.722;2023-04-24T02:58:17;15.80;;;8.07;;
64795;SDS011;51229;51.980;6.722;2023-04-24T03:00:45;13.88;;;7.43;;
64795;SDS011;51229;51.980;6.722;2023-04-24T03:03:11;15.23;;;7.80;;
64795;SDS011;51229;51.980;6.722;2023-04-24T03:05:37;14.65;;;8.32;;
64795;SDS011;51229;51.980;6.722;2023-04-24T03:08:03;15.48;;;8.55;;
64795;SDS011;51229;51.980;6.722;2023-04-24T03:10:28;14.02;;;8.82;;
64795;SDS011;51229;51.980;6.722;2023-04-24T03:12:54;14.25;;;7.82;;
64795;SDS011;51229;51.980;6.722;2023-04-24T03:15:20;15.55;;;8.98;;
64795;SDS011;51229;51.980;6.722;2023-04-24T03:17:46;14.57;;;8.25;;
64795;SDS011;51229;51.980;6.722;2023-04-24T03:20:11;17.25;;;10.07;;
64795;SDS011;51229;51.980;6.722;2023-04-24T03:22:37;15.45;;;8.77;;
64795;SDS011;51229;51.980;6.722;2023-04-24T03:25:06;17.13;;;10.73;;
64795;SDS011;51229;51.980;6.722;2023-04-24T03:27:34;15.60;;;10.63;;
64795;SDS011;51229;51.980;6.722;2023-04-24T03:30:03;14.60;;;8.77;;
64795;SDS011;51229;51.980;6.722;2023-04-24T03:32:40;15.18;;;10.68;;
64795;SDS011;51229;51.980;6.722;2023-04-24T03:35:07;17.35;;;8.95;;
64795;SDS011;51229;51.980;6.722;2023-04-24T03:37:34;15.50;;;9.70;;
64795;SDS011;51229;51.980;6.722;2023-04-24T03:42:43;16.55;;;9.63;;
64795;SDS011;51229;51.980;6.722;2023-04-24T03:45:09;15.40;;;7.85;;
64795;SDS011;51229;51.980;6.722;2023-04-24T03:47:37;12.60;;;7.97;;
64795;SDS011;51229;51.980;6.722;2023-04-24T03:50:04;17.25;;;10.77;;
64795;SDS011;51229;51.980;6.722;2023-04-24T03:52:33;14.50;;;9.65;;
64795;SDS011;51229;51.980;6.722;2023-04-24T03:54:59;17.30;;;9.07;;
64795;SDS011;51229;51.980;6.722;2023-04-24T03:57:26;17.83;;;10.07;;
64795;SDS011;51229;51.980;6.722;2023-04-24T04:00:05;19.00;;;10.80;;
64795;SDS011;51229;51.980;6.722;2023-04-24T04:02:39;10.38;;;7.55;;
64795;SDS011;51229;51.980;6.722;2023-04-24T04:05:07;17.10;;;11.10;;
64795;SDS011;51229;51.980;6.722;2023-04-24T04:07:33;17.58;;;11.13;;
64795;SDS011;51229;51.980;6.722;2023-04-24T04:09:59;15.68;;;9.40;;
64795;SDS011;51229;51.980;6.722;2023-04-24T04:12:25;17.45;;;10.73;;
64795;SDS011;51229;51.980;6.722;2023-04-24T04:14:50;14.85;;;10.02;;
64795;SDS011;51229;51.980;6.722;2023-04-24T04:17:17;17.17;;;11.18;;
64795;SDS011;51229;51.980;6.722;2023-04-24T04:19:43;15.35;;;10.02;;
64795;SDS011;51229;51.980;6.722;2023-04-24T04:22:09;18.13;;;10.88;;
64795;SDS011;51229;51.980;6.722;2023-04-24T04:27:09;18.30;;;11.23;;
64795;SDS011;51229;51.980;6.722;2023-04-24T04:29:44;18.10;;;11.05;;
64795;SDS011;51229;51.980;6.722;2023-04-24T04:32:13;17.80;;;11.15;;
64795;SDS011;51229;51.980;6.722;2023-04-24T04:34:38;17.30;;;10.93;;
64795;SDS011;51229;51.980;6.722;2023-04-24T04:37:06;21.05;;;12.88;;
64795;SDS011;51229;51.980;6.722;2023-04-24T04:39:52;14.20;;;9.73;;
64795;SDS011;51229;51.980;6.722;2023-04-24T04:42:22;17.38;;;10.55;;
64795;SDS011;51229;51.980;6.722;2023-04-24T04:44:48;16.48;;;10.50;;
64795;SDS011;51229;51.980;6.722;2023-04-24T04:47:18;18.17;;;11.02;;
64795;SDS011;51229;51.980;6.722;2023-04-24T04:49:49;15.85;;;10.07;;
64795;SDS011;51229;51.980;6.722;2023-04-24T04:52:20;16.70;;;10.57;;
64795;SDS011;51229;51.980;6.722;2023-04-24T04:54:52;18.48;;;11.65;;
64795;SDS011;51229;51.980;6.722;2023-04-24T04:57:19;18.85;;;12.10;;
64795;SDS011;51229;51.980;6.722;2023-04-24T04:59:45;18.77;;;11.35;;
64795;SDS011;51229;51.980;6.722;2023-04-24T05:02:19;18.42;;;11.95;;
64795;SDS011;51229;51.980;6.722;2023-04-24T05:04:45;14.25;;;8.80;;
64795;SDS011;51229;51.980;6.722;2023-04-24T05:07:11;21.45;;;13.93;;
64795;SDS011;51229;51.980;6.722;2023-04-24T05:09:39;20.15;;;12.55;;
64795;SDS011;51229;51.980;6.722;2023-04-24T05:12:05;14.00;;;9.60;;
64795;SDS011;51229;51.980;6.722;2023-04-24T05:14:37;20.02;;;12.68;;
64795;SDS011;51229;51.980;6.722;2023-04-24T05:17:03;20.10;;;12.02;;
64795;SDS011;51229;51.980;6.722;2023-04-24T05:19:30;19.17;;;10.85;;
64795;SDS011;51229;51.980;6.722;2023-04-24T05:21:58;18.50;;;10.93;;
64795;SDS011;51229;51.980;6.722;2023-04-24T05:24:24;18.50;;;11.80;;
64795;SDS011;51229;51.980;6.722;2023-04-24T05:27:12;15.82;;;9.50;;
64795;SDS011;51229;51.980;6.722;2023-04-24T05:29:39;16.33;;;9.52;;
64795;SDS011;51229;51.980;6.722;2023-04-24T05:32:05;19.52;;;10.90;;
64795;SDS011;51229;51.980;6.722;2023-04-24T05:34:31;19.10;;;11.57;;
64795;SDS011;51229;51.980;6.722;2023-04-24T05:36:57;16.90;;;10.20;;
64795;SDS011;51229;51.980;6.722;2023-04-24T05:39:23;17.95;;;10.60;;
64795;SDS011;51229;51.980;6.722;2023-04-24T05:41:50;19.25;;;11.75;;
64795;SDS011;51229;51.980;6.722;2023-04-24T05:44:16;18.17;;;10.93;;
64795;SDS011;51229;51.980;6.722;2023-04-24T05:46:42;21.55;;;12.82;;
64795;SDS011;51229;51.980;6.722;2023-04-24T05:49:09;23.10;;;12.40;;
64795;SDS011;51229;51.980;6.722;2023-04-24T05:51:35;17.15;;;10.95;;
64795;SDS011;51229;51.980;6.722;2023-04-24T05:54:01;19.50;;;11.65;;
64795;SDS011;51229;51.980;6.722;2023-04-24T05:56:28;19.40;;;11.60;;
64795;SDS011;51229;51.980;6.722;2023-04-24T05:58:54;17.60;;;11.45;;
64795;SDS011;51229;51.980;6.722;2023-04-24T06:01:20;14.95;;;8.10;;
64795;SDS011;51229;51.980;6.722;2023-04-24T06:03:53;16.48;;;10.88;;
64795;SDS011;51229;51.980;6.722;2023-04-24T06:06:19;18.17;;;10.27;;
64795;SDS011;51229;51.980;6.722;2023-04-24T06:08:45;14.05;;;8.07;;
64795;SDS011;51229;51.980;6.722;2023-04-24T06:11:11;19.92;;;10.60;;
64795;SDS011;51229;51.980;6.722;2023-04-24T06:13:37;17.45;;;10.77;;
64795;SDS011;51229;51.980;6.722;2023-04-24T06:16:22;16.08;;;9.70;;
64795;SDS011;51229;51.980;6.722;2023-04-24T06:18:54;15.15;;;8.50;;
64795;SDS011;51229;51.980;6.722;2023-04-24T06:21:20;15.63;;;8.70;;
64795;SDS011;51229;51.980;6.722;2023-04-24T06:23:46;15.45;;;8.85;;
64795;SDS011;51229;51.980;6.722;2023-04-24T06:26:13;16.45;;;8.93;;
64795;SDS011;51229;51.980;6.722;2023-04-24T06:28:39;13.32;;;7.50;;
64795;SDS011;51229;51.980;6.722;2023-04-24T06:31:05;14.65;;;8.45;;
64795;SDS011;51229;51.980;6.722;2023-04-24T06:33:31;15.18;;;8.30;;
64795;SDS011;51229;51.980;6.722;2023-04-24T06:35:57;12.73;;;6.43;;
64795;SDS011;51229;51.980;6.722;2023-04-24T06:38:23;12.80;;;8.32;;
64795;SDS011;51229;51.980;6.722;2023-04-24T06:40:49;13.25;;;8.65;;
64795;SDS011;51229;51.980;6.722;2023-04-24T06:43:15;17.48;;;9.27;;
64795;SDS011;51229;51.980;6.722;2023-04-24T06:45:40;14.30;;;7.80;;
64795;SDS011;51229;51.980;6.722;2023-04-24T06:48:08;12.10;;;8.45;;
64795;SDS011;51229;51.980;6.722;2023-04-24T06:50:33;13.38;;;8.45;;
64795;SDS011;51229;51.980;6.722;2023-04-24T06:52:59;14.38;;;8.02;;
64795;SDS011;51229;51.980;6.722;2023-04-24T06:55:25;14.38;;;7.30;;
64795;SDS011;51229;51.980;6.722;2023-04-24T06:57:50;13.75;;;7.95;;
64795;SDS011;51229;51.980;6.722;2023-04-24T07:00:16;13.35;;;8.38;;
64795;SDS011;51229;51.980;6.722;2023-04-24T07:02:42;13.10;;;8.80;;
64795;SDS011;51229;51.980;6.722;2023-04-24T07:05:08;14.80;;;8.02;;
64795;SDS011;51229;51.980;6.722;2023-04-24T07:07:34;15.43;;;7.70;;
64795;SDS011;51229;51.980;6.722;2023-04-24T07:10:03;12.63;;;7.47;;
64795;SDS011;51229;51.980;6.722;2023-04-24T07:12:29;11.80;;;7.53;;
64795;SDS011;51229;51.980;6.722;2023-04-24T07:14:55;10.77;;;5.80;;
64795;SDS011;51229;51.980;6.722;2023-04-24T07:17:21;9.85;;;5.68;;
64795;SDS011;51229;51.980;6.722;2023-04-24T07:19:46;9.43;;;6.90;;
64795;SDS011;51229;51.980;6.722;2023-04-24T07:22:12;8.95;;;5.28;;
64795;SDS011;51229;51.980;6.722;2023-04-24T07:24:42;10.30;;;6.43;;
64795;SDS011;51229;51.980;6.722;2023-04-24T07:27:11;10.45;;;5.75;;
64795;SDS011;51229;51.980;6.722;2023-04-24T07:29:37;9.32;;;6.00;;
64795;SDS011;51229;51.980;6.722;2023-04-24T07:32:03;11.45;;;5.90;;
64795;SDS011;51229;51.980;6.722;2023-04-24T07:34:29;8.70;;;5.22;;
64795;SDS011;51229;51.980;6.722;2023-04-24T07:36:54;7.63;;;4.80;;
64795;SDS011;51229;51.980;6.722;2023-04-24T07:39:20;8.35;;;5.63;;
64795;SDS011;51229;51.980;6.722;2023-04-24T07:41:46;9.27;;;5.90;;
64795;SDS011;51229;51.980;6.722;2023-04-24T07:44:11;9.57;;;5.88;;
64795;SDS011;51229;51.980;6.722;2023-04-24T07:46:37;9.70;;;5.35;;
64795;SDS011;51229;51.980;6.722;2023-04-24T07:49:03;9.40;;;5.53;;
64795;SDS011;51229;51.980;6.722;2023-04-24T07:51:29;8.82;;;5.75;;
64795;SDS011;51229;51.980;6.722;2023-04-24T07:53:56;8.98;;;5.22;;
64795;SDS011;51229;51.980;6.722;2023-04-24T07:56:21;6.28;;;3.85;;
64795;SDS011;51229;51.980;6.722;2023-04-24T07:58:47;8.95;;;4.78;;
64795;SDS011;51229;51.980;6.722;2023-04-24T08:01:13;7.63;;;4.57;;
64795;SDS011;51229;51.980;6.722;2023-04-24T08:03:38;8.07;;;4.70;;
64795;SDS011;51229;51.980;6.722;2023-04-24T08:06:04;7.38;;;4.43;;
64795;SDS011;51229;51.980;6.722;2023-04-24T08:08:30;7.18;;;4.72;;
64795;SDS011;51229;51.980;6.722;2023-04-24T08:10:56;5.90;;;3.75;;
64795;SDS011;51229;51.980;6.722;2023-04-24T08:13:21;7.53;;;4.57;;
64795;SDS011;51229;51.980;6.722;2023-04-24T08:15:47;7.63;;;4.32;;
64795;SDS011;51229;51.980;6.722;2023-04-24T08:18:13;7.47;;;4.57;;
64795;SDS011;51229;51.980;6.722;2023-04-24T08:20:40;7.80;;;4.38;;
64795;SDS011;51229;51.980;6.722;2023-04-24T08:23:06;7.07;;;4.43;;
64795;SDS011;51229;51.980;6.722;2023-04-24T08:25:32;6.80;;;3.97;;
64795;SDS011;51229;51.980;6.722;2023-04-24T08:27:57;0.00;;;0.00;;
64795;SDS011;51229;51.980;6.722;2023-04-24T08:30:23;0.00;;;0.00;;
64795;SDS011;51229;51.980;6.722;2023-04-24T08:32:49;2.15;;;1.10;;
64795;SDS011;51229;51.980;6.722;2023-04-24T08:35:14;0.30;;;0.30;;
64795;SDS011;51229;51.980;6.722;2023-04-24T08:37:40;0.00;;;0.00;;
64795;SDS011;51229;51.980;6.722;2023-04-24T08:40:12;0.20;;;0.20;;
64795;SDS011;51229;51.980;6.722;2023-04-24T08:45:07;0.00;;;0.00;;
64795;SDS011;51229;51.980;6.722;2023-04-24T08:47:33;0.47;;;0.20;;
64795;SDS011;51229;51.980;6.722;2023-04-24T08:50:00;0.20;;;0.15;;
64795;SDS011;51229;51.980;6.722;2023-04-24T08:52:28;0.03;;;0.03;;
64795;SDS011;51229;51.980;6.722;2023-04-24T08:54:54;0.45;;;0.45;;
64795;SDS011;51229;51.980;6.722;2023-04-24T08:57:21;1.48;;;0.63;;
64795;SDS011;51229;51.980;6.722;2023-04-24T08:59:47;0.60;;;0.40;;
64795;SDS011;51229;51.980;6.722;2023-04-24T09:02:13;0.28;;;0.20;;
64795;SDS011;51229;51.980;6.722;2023-04-24T09:04:40;0.00;;;0.00;;
64795;SDS011;51229;51.980;6.722;2023-04-24T09:07:08;2.08;;;0.52;;
64795;SDS011;51229;51.980;6.722;2023-04-24T09:09:35;0.00;;;0.00;;
64795;SDS011;51229;51.980;6.722;2023-04-24T09:12:03;0.05;;;0.05;;
64795;SDS011;51229;51.980;6.722;2023-04-24T09:14:29;0.03;;;0.03;;
64795;SDS011;51229;51.980;6.722;2023-04-24T09:16:57;0.10;;;0.10;;
64795;SDS011;51229;51.980;6.722;2023-04-24T09:19:22;0.43;;;0.43;;
64795;SDS011;51229;51.980;6.722;2023-04-24T09:21:48;0.30;;;0.15;;
64795;SDS011;51229;51.980;6.722;2023-04-24T09:24:15;0.10;;;0.10;;
64795;SDS011;51229;51.980;6.722;2023-04-24T09:26:43;0.00;;;0.00;;
64795;SDS011;51229;51.980;6.722;2023-04-24T09:29:13;0.05;;;0.00;;
64795;SDS011;51229;51.980;6.722;2023-04-24T09:31:43;0.50;;;0.50;;
64795;SDS011;51229;51.980;6.722;2023-04-24T09:34:10;0.60;;;0.55;;
64795;SDS011;51229;51.980;6.722;2023-04-24T09:36:42;0.00;;;0.00;;
64795;SDS011;51229;51.980;6.722;2023-04-24T09:39:09;0.77;;;0.50;;
64795;SDS011;51229;51.980;6.722;2023-04-24T09:41:47;0.38;;;0.38;;
64795;SDS011;51229;51.980;6.722;2023-04-24T09:46:48;0.13;;;0.13;;
64795;SDS011;51229;51.980;6.722;2023-04-24T09:49:16;0.10;;;0.10;;
64795;SDS011;51229;51.980;6.722;2023-04-24T09:51:47;0.03;;;0.03;;
64795;SDS011;51229;51.980;6.722;2023-04-24T09:54:14;0.03;;;0.03;;
64795;SDS011;51229;51.980;6.722;2023-04-24T09:56:44;0.75;;;0.52;;
64795;SDS011;51229;51.980;6.722;2023-04-24T09:59:12;0.50;;;0.38;;
64795;SDS011;51229;51.980;6.722;2023-04-24T10:01:39;0.08;;;0.08;;
64795;SDS011;51229;51.980;6.722;2023-04-24T10:04:14;0.00;;;0.00;;
64795;SDS011;51229;51.980;6.722;2023-04-24T10:06:44;0.28;;;0.05;;
64795;SDS011;51229;51.980;6.722;2023-04-24T10:09:11;0.05;;;0.05;;
64795;SDS011;51229;51.980;6.722;2023-04-24T10:11:41;0.00;;;0.00;;
64795;SDS011;51229;51.980;6.722;2023-04-24T10:14:09;0.00;;;0.00;;
64795;SDS011;51229;51.980;6.722;2023-04-24T10:16:46;0.28;;;0.10;;
64795;SDS011;51229;51.980;6.722;2023-04-24T10:19:14;0.35;;;0.20;;
64795;SDS011;51229;51.980;6.722;2023-04-24T10:21:41;0.20;;;0.20;;
64795;SDS011;51229;51.980;6.722;2023-04-24T10:24:12;0.00;;;0.00;;
64795;SDS011;51229;51.980;6.722;2023-04-24T10:26:42;0.00;;;0.00;;
64795;SDS011;51229;51.980;6.722;2023-04-24T10:29:10;0.00;;;0.00;;
64795;SDS011;51229;51.980;6.722;2023-04-24T10:31:37;0.30;;;0.20;;
64795;SDS011;51229;51.980;6.722;2023-04-24T10:34:07;0.15;;;0.10;;
64795;SDS011;51229;51.980;6.722;2023-04-24T10:36:35;0.88;;;0.45;;
64795;SDS011;51229;51.980;6.722;2023-04-24T10:39:02;0.30;;;0.30;;
64795;SDS011;51229;51.980;6.722;2023-04-24T10:41:31;0.00;;;0.00;;
64795;SDS011;51229;51.980;6.722;2023-04-24T10:44:10;0.22;;;0.22;;
64795;SDS011;51229;51.980;6.722;2023-04-24T10:46:38;0.20;;;0.10;;
64795;SDS011;51229;51.980;6.722;2023-04-24T10:49:07;0.00;;;0.00;;
64795;SDS011;51229;51.980;6.722;2023-04-24T10:54:46;0.25;;;0.25;;
64795;SDS011;51229;51.980;6.722;2023-04-24T10:59:45;1.83;;;0.45;;
64795;SDS011;51229;51.980;6.722;2023-04-24T11:02:14;0.88;;;0.77;;
64795;SDS011;51229;51.980;6.722;2023-04-24T11:04:41;0.00;;;0.00;;
64795;SDS011;51229;51.980;6.722;2023-04-24T11:07:10;0.25;;;0.20;;
64795;SDS011;51229;51.980;6.722;2023-04-24T11:09:36;0.13;;;0.10;;
64795;SDS011;51229;51.980;6.722;2023-04-24T11:12:06;0.00;;;0.00;;
64795;SDS011;51229;51.980;6.722;2023-04-24T11:17:34;0.00;;;0.00;;
64795;SDS011;51229;51.980;6.722;2023-04-24T11:22:33;0.45;;;0.40;;
64795;SDS011;51229;51.980;6.722;2023-04-24T11:25:03;0.00;;;0.00;;
64795;SDS011;51229;51.980;6.722;2023-04-24T11:27:32;0.17;;;0.15;;
64795;SDS011;51229;51.980;6.722;2023-04-24T11:30:04;0.00;;;0.00;;
64795;SDS011;51229;51.980;6.722;2023-04-24T11:35:18;0.00;;;0.00;;
64795;SDS011;51229;51.980;6.722;2023-04-24T11:37:46;0.03;;;0.03;;
64795;SDS011;51229;51.980;6.722;2023-04-24T11:40:17;0.00;;;0.00;;
64795;SDS011;51229;51.980;6.722;2023-04-24T11:42:49;0.30;;;0.30;;
64795;SDS011;51229;51.980;6.722;2023-04-24T11:47:48;0.05;;;0.05;;
64795;SDS011;51229;51.980;6.722;2023-04-24T11:50:15;0.05;;;0.03;;
64795;SDS011;51229;51.980;6.722;2023-04-24T11:52:43;0.10;;;0.10;;
64795;SDS011;51229;51.980;6.722;2023-04-24T11:57:39;0.00;;;0.00;;
64795;SDS011;51229;51.980;6.722;2023-04-24T12:00:15;2.33;;;0.55;;
64795;SDS011;51229;51.980;6.722;2023-04-24T12:02:45;0.45;;;0.30;;
64795;SDS011;51229;51.980;6.722;2023-04-24T12:05:19;1.08;;;0.70;;
64795;SDS011;51229;51.980;6.722;2023-04-24T12:07:49;0.00;;;0.00;;
64795;SDS011;51229;51.980;6.722;2023-04-24T12:10:19;0.52;;;0.22;;
64795;SDS011;51229;51.980;6.722;2023-04-24T12:12:46;0.30;;;0.25;;
64795;SDS011;51229;51.980;6.722;2023-04-24T12:15:12;0.30;;;0.22;;
64795;SDS011;51229;51.980;6.722;2023-04-24T12:17:40;0.00;;;0.00;;
64795;SDS011;51229;51.980;6.722;2023-04-24T12:20:07;0.00;;;0.00;;
64795;SDS011;51229;51.980;6.722;2023-04-24T12:25:13;0.05;;;0.05;;
64795;SDS011;51229;51.980;6.722;2023-04-24T12:27:40;1.95;;;0.30;;
64795;SDS011;51229;51.980;6.722;2023-04-24T12:30:12;0.30;;;0.10;;
64795;SDS011;51229;51.980;6.722;2023-04-24T12:32:43;0.00;;;0.00;;
64795;SDS011;51229;51.980;6.722;2023-04-24T12:35:10;0.15;;;0.10;;
64795;SDS011;51229;51.980;6.722;2023-04-24T12:37:35;0.00;;;0.00;;
64795;SDS011;51229;51.980;6.722;2023-04-24T12:40:08;0.00;;;0.00;;
64795;SDS011;51229;51.980;6.722;2023-04-24T12:42:41;0.00;;;0.00;;
64795;SDS011;51229;51.980;6.722;2023-04-24T12:47:34;0.20;;;0.20;;
64795;SDS011;51229;51.980;6.722;2023-04-24T12:50:00;1.80;;;0.38;;
64795;SDS011;51229;51.980;6.722;2023-04-24T12:52:28;0.10;;;0.10;;
64795;SDS011;51229;51.980;6.722;2023-04-24T12:54:55;0.20;;;0.10;;
64795;SDS011;51229;51.980;6.722;2023-04-24T12:57:23;0.00;;;0.00;;
64795;SDS011;51229;51.980;6.722;2023-04-24T12:59:49;0.65;;;0.30;;
64795;SDS011;51229;51.980;6.722;2023-04-24T13:02:15;0.38;;;0.38;;
64795;SDS011;51229;51.980;6.722;2023-04-24T13:04:44;1.02;;;1.02;;
64795;SDS011;51229;51.980;6.722;2023-04-24T13:07:12;0.38;;;0.15;;
64795;SDS011;51229;51.980;6.722;2023-04-24T13:09:38;0.00;;;0.00;;
64795;SDS011;51229;51.980;6.722;2023-04-24T13:12:04;0.00;;;0.00;;
64795;SDS011;51229;51.980;6.722;2023-04-24T13:14:30;0.00;;;0.00;;
64795;SDS011;51229;51.980;6.722;2023-04-24T13:16:57;0.00;;;0.00;;
64795;SDS011;51229;51.980;6.722;2023-04-24T13:19:26;0.20;;;0.20;;
64795;SDS011;51229;51.980;6.722;2023-04-24T13:21:52;0.20;;;0.20;;
64795;SDS011;51229;51.980;6.722;2023-04-24T13:24:25;0.00;;;0.00;;
64795;SDS011;51229;51.980;6.722;2023-04-24T13:26:54;0.00;;;0.00;;
64795;SDS011;51229;51.980;6.722;2023-04-24T13:29:21;0.08;;;0.08;;
64795;SDS011;51229;51.980;6.722;2023-04-24T13:31:49;0.00;;;0.00;;
64795;SDS011;51229;51.980;6.722;2023-04-24T13:34:16;0.15;;;0.15;;
64795;SDS011;51229;51.980;6.722;2023-04-24T13:36:42;0.00;;;0.00;;
64795;SDS011;51229;51.980;6.722;2023-04-24T13:39:08;0.00;;;0.00;;
64795;SDS011;51229;51.980;6.722;2023-04-24T13:41:33;0.00;;;0.00;;
64795;SDS011;51229;51.980;6.722;2023-04-24T13:44:01;0.30;;;0.17;;
64795;SDS011;51229;51.980;6.722;2023-04-24T13:46:27;0.10;;;0.08;;
64795;SDS011;51229;51.980;6.722;2023-04-24T13:48:53;0.00;;;0.00;;
64795;SDS011;51229;51.980;6.722;2023-04-24T13:51:19;0.00;;;0.00;;
64795;SDS011;51229;51.980;6.722;2023-04-24T13:53:44;0.17;;;0.17;;
64795;SDS011;51229;51.980;6.722;2023-04-24T13:56:10;0.17;;;0.17;;
64795;SDS011;51229;51.980;6.722;2023-04-24T13:58:37;0.00;;;0.00;;
64795;SDS011;51229;51.980;6.722;2023-04-24T14:01:03;0.00;;;0.00;;
64795;SDS011;51229;51.980;6.722;2023-04-24T14:03:29;0.45;;;0.45;;
64795;SDS011;51229;51.980;6.722;2023-04-24T14:05:55;0.08;;;0.00;;
64795;SDS011;51229;51.980;6.722;2023-04-24T14:08:21;0.00;;;0.00;;
64795;SDS011;51229;51.980;6.722;2023-04-24T14:10:47;0.00;;;0.00;;
64795;SDS011;51229;51.980;6.722;2023-04-24T14:13:12;0.05;;;0.05;;
64795;SDS011;51229;51.980;6.722;2023-04-24T14:15:38;0.00;;;0.00;;
64795;SDS011;51229;51.980;6.722;2023-04-24T14:18:04;0.20;;;0.20;;
64795;SDS011;51229;51.980;6.722;2023-04-24T14:20:30;0.00;;;0.00;;
64795;SDS011;51229;51.980;6.722;2023-04-24T14:22:56;3.72;;;1.33;;
64795;SDS011;51229;51.980;6.722;2023-04-24T14:25:24;4.72;;;1.70;;
64795;SDS011;51229;51.980;6.722;2023-04-24T14:27:50;3.20;;;1.58;;
64795;SDS011;51229;51.980;6.722;2023-04-24T14:30:16;3.95;;;1.60;;
64795;SDS011;51229;51.980;6.722;2023-04-24T14:32:42;5.35;;;1.40;;
64795;SDS011;51229;51.980;6.722;2023-04-24T14:35:08;3.78;;;1.70;;
64795;SDS011;51229;51.980;6.722;2023-04-24T14:37:33;6.35;;;1.85;;
64795;SDS011;51229;51.980;6.722;2023-04-24T14:40:00;4.22;;;1.73;;
64795;SDS011;51229;51.980;6.722;2023-04-24T14:42:26;5.30;;;1.88;;
64795;SDS011;51229;51.980;6.722;2023-04-24T14:44:53;5.45;;;1.80;;
64795;SDS011;51229;51.980;6.722;2023-04-24T14:47:19;8.38;;;2.10;;
64795;SDS011;51229;51.980;6.722;2023-04-24T14:49:47;3.67;;;1.80;;
64795;SDS011;51229;51.980;6.722;2023-04-24T14:52:13;5.18;;;1.52;;
64795;SDS011;51229;51.980;6.722;2023-04-24T14:54:39;6.88;;;1.90;;
64795;SDS011;51229;51.980;6.722;2023-04-24T14:57:05;5.82;;;1.73;;
64795;SDS011;51229;51.980;6.722;2023-04-24T14:59:30;6.32;;;1.95;;
64795;SDS011;51229;51.980;6.722;2023-04-24T15:01:57;4.43;;;1.60;;
64795;SDS011;51229;51.980;6.722;2023-04-24T15:04:25;3.53;;;1.70;;
64795;SDS011;51229;51.980;6.722;2023-04-24T15:06:52;5.97;;;1.90;;
64795;SDS011;51229;51.980;6.722;2023-04-24T15:09:22;4.57;;;1.52;;
64795;SDS011;51229;51.980;6.722;2023-04-24T15:11:49;4.57;;;1.60;;
64795;SDS011;51229;51.980;6.722;2023-04-24T15:14:15;5.95;;;1.75;;